Historique des mesures à Cassis (13260), France
Quotidien Résumé Juin 1, 2018 Unités:  Métrique    US   Métrique/US
« Précédent (Jour)
Suivant (Jour) »
Quotidien Hebdomadaire Mensuel Annuel Période au choix
  Maximum: Minimum: Moyenne:
Température: TemperatureC °C 17.4 °C 21.1 °C
Point de rosée: DewpointC °C 14.3 °C 15.8 °C
Humidité: Humidity % 61 % 69 %
Vitesse du vent: 0 km/h 0 km/h 4.7 km/h
Rafales: 0 km/h - -
Vent:- - East
Pression: PressurehPa hPa 1013.8 hPa -
Précipitations: 0.0 mm    
Historical Graphs
 
 
Mesures pour : Juin 1, 2018
Heure Temperature Point de rosée Pression Vent Vitesse du vent Rafales Humidité Pluie (par heure) Conditions
TemperatureC °C DewpointC °C PressurehPa hPa Calm     Humidity % HourlyPrecipMM mm SoftwareType W/m2
00:10 19.7 °C 15.3 °C 1015.3 hPa Calm     76 % 0.0 mm open2300-1.11 W/m2
01:10 18.8 °C 14.9 °C 1015.8 hPa North 2.9 km/h 2.9 km/h 78 % 0.0 mm open2300-1.11 W/m2
02:10 18.1 °C 14.6 °C 1015.3 hPa North 4.2 km/h 10.3 km/h 80 % 0.0 mm open2300-1.11 W/m2
03:10 18.0 °C 14.7 °C 1015.4 hPa NW 4.7 km/h 4.7 km/h 81 % 0.0 mm open2300-1.11 W/m2
04:10 17.6 °C 14.5 °C 1015.1 hPa Calm   3.4 km/h 82 % 0.0 mm open2300-1.11 W/m2
05:10 17.4 °C 14.3 °C 1014.8 hPa Calm   1.8 km/h 82 % 0.0 mm open2300-1.11 W/m2
06:10 17.8 °C 14.9 °C 1014.8 hPa North 2.3 km/h 2.3 km/h 83 % 0.0 mm open2300-1.11 W/m2
07:10 17.8 °C 14.7 °C 1015.2 hPa Calm     82 % 0.0 mm open2300-1.11 W/m2
08:10 21.1 °C 17.3 °C 1015.5 hPa Calm     79 % 0.0 mm open2300-1.11 W/m2
09:10 20.9 °C 16.7 °C 1015.4 hPa North 7.6 km/h 7.6 km/h 77 % 0.0 mm open2300-1.11 W/m2
10:10 21.4 °C 16.6 °C 1015.3 hPa North 6.4 km/h 25.4 km/h 74 % 0.0 mm open2300-1.11 W/m2
11:10 24.2 °C 17.2 °C 1015.2 hPa North 8.9 km/h 17.4 km/h 65 % 0.0 mm open2300-1.11 W/m2
12:10 25.4 °C 17.6 °C 1015.1 hPa North 4.2 km/h 11.6 km/h 62 % 0.0 mm open2300-1.11 W/m2
13:10 26.2 °C 18.1 °C 1015.0 hPa West 19.2 km/h 19.6 km/h 61 % 0.0 mm open2300-1.11 W/m2
14:10 25.8 °C 17.7 °C 1014.7 hPa North 23 km/h 42.2 km/h 61 % 0.0 mm open2300-1.11 W/m2
15:10 26.2 °C 18.6 °C 1014.5 hPa North 5.1 km/h 9.8 km/h 63 % 0.0 mm open2300-1.11 W/m2
16:10 26.9 °C 18.8 °C 1013.8 hPa Calm   15.6 km/h 61 % 0.0 mm open2300-1.11 W/m2
17:10 26.7 °C 18.6 °C 1013.9 hPa West 8.9 km/h 8.9 km/h 61 % 0.0 mm open2300-1.11 W/m2
18:10 25.9 °C 18.1 °C 1013.8 hPa East 2.3 km/h 5.6 km/h 62 % 0.0 mm open2300-1.11 W/m2
19:10 25.1 °C 17.8 °C 1013.8 hPa SE 4.2 km/h 6.4 km/h 64 % 0.0 mm open2300-1.11 W/m2
20:10 23.9 °C 17.6 °C 1014.4 hPa Calm   3.4 km/h 68 % 0.0 mm open2300-1.11 W/m2
21:10 22.2 °C 16.2 °C 1014.5 hPa North 10.3 km/h 11.6 km/h 69 % 0.0 mm open2300-1.11 W/m2
22:10 20.8 °C 15.6 °C 1014.9 hPa NW 2.3 km/h 4.2 km/h 72 % 0.0 mm open2300-1.11 W/m2
23:10 20.6 °C 15.8 °C 1015.5 hPa Calm     74 % 0.0 mm open2300-1.11 W/m2
Observations météo à CASSIS
WU-History script by Weather Underground - 1 mb